sensor_id;sensor_type;location;lat;lon;timestamp;pressure;altitude;pressure_sealevel;temperature;humidity
68193;BME280;55012;47.562;18.414;2023-11-22T00:00:02;98954.09;;;6.24;100.00
68193;BME280;55012;47.562;18.414;2023-11-22T00:02:29;98967.09;;;6.13;100.00
68193;BME280;55012;47.562;18.414;2023-11-22T00:04:55;98960.97;;;5.96;100.00
68193;BME280;55012;47.562;18.414;2023-11-22T00:07:20;98964.44;;;5.87;100.00
68193;BME280;55012;47.562;18.414;2023-11-22T00:09:47;98973.63;;;5.78;100.00
68193;BME280;55012;47.562;18.414;2023-11-22T00:12:13;98966.59;;;5.56;100.00
68193;BME280;55012;47.562;18.414;2023-11-22T00:14:38;98971.47;;;5.54;100.00
68193;BME280;55012;47.562;18.414;2023-11-22T00:17:04;98966.09;;;5.45;100.00
68193;BME280;55012;47.562;18.414;2023-11-22T00:19:30;98971.78;;;5.44;100.00
68193;BME280;55012;47.562;18.414;2023-11-22T00:21:56;98964.38;;;5.41;100.00
68193;BME280;55012;47.562;18.414;2023-11-22T00:24:21;98961.25;;;5.39;100.00
68193;BME280;55012;47.562;18.414;2023-11-22T00:26:47;98978.91;;;5.40;100.00
68193;BME280;55012;47.562;18.414;2023-11-22T00:29:12;98977.34;;;5.47;100.00
68193;BME280;55012;47.562;18.414;2023-11-22T00:31:38;98980.16;;;5.51;100.00
68193;BME280;55012;47.562;18.414;2023-11-22T00:34:04;98983.16;;;5.58;100.00
68193;BME280;55012;47.562;18.414;2023-11-22T00:36:29;98986.16;;;5.65;100.00
68193;BME280;55012;47.562;18.414;2023-11-22T00:38:55;98978.69;;;5.71;100.00
68193;BME280;55012;47.562;18.414;2023-11-22T00:41:21;98971.94;;;5.73;100.00
68193;BME280;55012;47.562;18.414;2023-11-22T00:43:46;98976.34;;;5.69;100.00
68193;BME280;55012;47.562;18.414;2023-11-22T00:46:12;98971.78;;;5.61;100.00
68193;BME280;55012;47.562;18.414;2023-11-22T00:48:37;98978.88;;;5.57;100.00
68193;BME280;55012;47.562;18.414;2023-11-22T00:51:03;98970.66;;;5.53;100.00
68193;BME280;55012;47.562;18.414;2023-11-22T00:53:34;98980.78;;;5.56;100.00
68193;BME280;55012;47.562;18.414;2023-11-22T00:56:01;98984.25;;;5.57;100.00
68193;BME280;55012;47.562;18.414;2023-11-22T00:58:27;98988.81;;;5.65;100.00
68193;BME280;55012;47.562;18.414;2023-11-22T01:00:52;98983.44;;;5.74;100.00
68193;BME280;55012;47.562;18.414;2023-11-22T01:03:18;98983.59;;;5.77;100.00
68193;BME280;55012;47.562;18.414;2023-11-22T01:05:44;98982.97;;;5.72;100.00
68193;BME280;55012;47.562;18.414;2023-11-22T01:08:12;98992.75;;;5.68;100.00
68193;BME280;55012;47.562;18.414;2023-11-22T01:10:39;98991.84;;;5.63;100.00
68193;BME280;55012;47.562;18.414;2023-11-22T01:13:04;98986.94;;;5.57;100.00
68193;BME280;55012;47.562;18.414;2023-11-22T01:15:30;98990.56;;;5.44;100.00
68193;BME280;55012;47.562;18.414;2023-11-22T01:17:55;99000.97;;;5.45;100.00
68193;BME280;55012;47.562;18.414;2023-11-22T01:20:20;98997.69;;;5.48;100.00
68193;BME280;55012;47.562;18.414;2023-11-22T01:22:48;99004.31;;;5.51;100.00
68193;BME280;55012;47.562;18.414;2023-11-22T01:25:14;98995.63;;;5.45;100.00
68193;BME280;55012;47.562;18.414;2023-11-22T01:27:39;99009.66;;;5.42;100.00
68193;BME280;55012;47.562;18.414;2023-11-22T01:30:05;99007.00;;;5.42;100.00
68193;BME280;55012;47.562;18.414;2023-11-22T01:32:33;99005.88;;;5.43;100.00
68193;BME280;55012;47.562;18.414;2023-11-22T01:35:00;99002.09;;;5.44;100.00
68193;BME280;55012;47.562;18.414;2023-11-22T01:37:25;99001.31;;;5.44;100.00
68193;BME280;55012;47.562;18.414;2023-11-22T01:39:52;98993.44;;;5.47;100.00
68193;BME280;55012;47.562;18.414;2023-11-22T01:42:19;99004.31;;;5.42;100.00
68193;BME280;55012;47.562;18.414;2023-11-22T01:44:45;99012.50;;;5.37;100.00
68193;BME280;55012;47.562;18.414;2023-11-22T01:47:13;99004.16;;;5.30;100.00
68193;BME280;55012;47.562;18.414;2023-11-22T01:49:39;99004.94;;;5.30;100.00
68193;BME280;55012;47.562;18.414;2023-11-22T01:52:05;99008.72;;;5.29;100.00
68193;BME280;55012;47.562;18.414;2023-11-22T01:54:31;99009.19;;;5.23;100.00
68193;BME280;55012;47.562;18.414;2023-11-22T01:56:58;99007.44;;;5.18;100.00
68193;BME280;55012;47.562;18.414;2023-11-22T01:59:25;99012.81;;;5.18;100.00
68193;BME280;55012;47.562;18.414;2023-11-22T02:01:53;99014.72;;;5.26;100.00
68193;BME280;55012;47.562;18.414;2023-11-22T02:04:18;99017.84;;;5.28;100.00
68193;BME280;55012;47.562;18.414;2023-11-22T02:06:45;99023.22;;;5.20;100.00
68193;BME280;55012;47.562;18.414;2023-11-22T02:09:10;99042.63;;;5.08;100.00
68193;BME280;55012;47.562;18.414;2023-11-22T02:11:40;99045.09;;;4.96;100.00
68193;BME280;55012;47.562;18.414;2023-11-22T02:14:07;99041.16;;;4.93;100.00
68193;BME280;55012;47.562;18.414;2023-11-22T02:16:34;99036.75;;;4.89;100.00
68193;BME280;55012;47.562;18.414;2023-11-22T02:19:00;99046.97;;;4.87;100.00
68193;BME280;55012;47.562;18.414;2023-11-22T02:21:26;99054.41;;;4.90;100.00
68193;BME280;55012;47.562;18.414;2023-11-22T02:23:51;99047.16;;;4.90;100.00
68193;BME280;55012;47.562;18.414;2023-11-22T02:26:16;99055.03;;;4.95;100.00
68193;BME280;55012;47.562;18.414;2023-11-22T02:28:45;99055.81;;;4.96;100.00
68193;BME280;55012;47.562;18.414;2023-11-22T02:31:11;99054.25;;;4.95;100.00
68193;BME280;55012;47.562;18.414;2023-11-22T02:33:36;99066.22;;;4.89;100.00
68193;BME280;55012;47.562;18.414;2023-11-22T02:36:02;99074.84;;;4.77;100.00
68193;BME280;55012;47.562;18.414;2023-11-22T02:38:28;99069.59;;;4.63;100.00
68193;BME280;55012;47.562;18.414;2023-11-22T02:40:53;99079.00;;;4.52;100.00
68193;BME280;55012;47.562;18.414;2023-11-22T02:43:19;99092.00;;;4.36;100.00
68193;BME280;55012;47.562;18.414;2023-11-22T02:45:46;99097.09;;;4.15;100.00
68193;BME280;55012;47.562;18.414;2023-11-22T02:48:11;99103.16;;;4.07;100.00
68193;BME280;55012;47.562;18.414;2023-11-22T02:50:38;99112.41;;;4.01;100.00
68193;BME280;55012;47.562;18.414;2023-11-22T02:53:04;99122.44;;;3.95;100.00
68193;BME280;55012;47.562;18.414;2023-11-22T02:55:30;99128.88;;;3.94;100.00
68193;BME280;55012;47.562;18.414;2023-11-22T02:57:56;99133.03;;;4.01;100.00
68193;BME280;55012;47.562;18.414;2023-11-22T03:00:21;99150.25;;;4.08;100.00
68193;BME280;55012;47.562;18.414;2023-11-22T03:02:47;99284.19;;;4.17;100.00
68193;BME280;55012;47.562;18.414;2023-11-22T03:05:19;99302.00;;;4.21;100.00
68193;BME280;55012;47.562;18.414;2023-11-22T03:07:45;99302.69;;;4.27;100.00
68193;BME280;55012;47.562;18.414;2023-11-22T03:10:10;99322.44;;;4.31;100.00
68193;BME280;55012;47.562;18.414;2023-11-22T03:12:36;99338.75;;;4.43;100.00
68193;BME280;55012;47.562;18.414;2023-11-22T03:15:01;99350.34;;;4.53;100.00
68193;BME280;55012;47.562;18.414;2023-11-22T03:17:28;99363.34;;;4.59;100.00
68193;BME280;55012;47.562;18.414;2023-11-22T03:19:57;99366.25;;;4.71;100.00
68193;BME280;55012;47.562;18.414;2023-11-22T03:22:23;99385.91;;;4.81;100.00
68193;BME280;55012;47.562;18.414;2023-11-22T03:24:49;99390.50;;;4.80;100.00
68193;BME280;55012;47.562;18.414;2023-11-22T03:27:15;99393.66;;;4.82;100.00
68193;BME280;55012;47.562;18.414;2023-11-22T03:29:41;99396.50;;;4.86;100.00
68193;BME280;55012;47.562;18.414;2023-11-22T03:32:06;99416.69;;;4.83;100.00
68193;BME280;55012;47.562;18.414;2023-11-22T03:34:32;99422.66;;;4.66;100.00
68193;BME280;55012;47.562;18.414;2023-11-22T03:36:57;99430.13;;;4.56;100.00
68193;BME280;55012;47.562;18.414;2023-11-22T03:39:23;99434.50;;;4.38;100.00
68193;BME280;55012;47.562;18.414;2023-11-22T03:41:48;99433.81;;;4.32;100.00
68193;BME280;55012;47.562;18.414;2023-11-22T03:44:16;99444.53;;;4.18;100.00
68193;BME280;55012;47.562;18.414;2023-11-22T03:46:41;99455.22;;;4.05;100.00
68193;BME280;55012;47.562;18.414;2023-11-22T03:49:06;99455.09;;;3.96;100.00
68193;BME280;55012;47.562;18.414;2023-11-22T03:51:33;99460.56;;;3.91;100.00
68193;BME280;55012;47.562;18.414;2023-11-22T03:53:59;99462.44;;;3.90;100.00
68193;BME280;55012;47.562;18.414;2023-11-22T03:56:26;99474.44;;;3.93;100.00
68193;BME280;55012;47.562;18.414;2023-11-22T03:58:52;99480.22;;;4.00;100.00
68193;BME280;55012;47.562;18.414;2023-11-22T04:01:17;99494.19;;;4.11;100.00
68193;BME280;55012;47.562;18.414;2023-11-22T04:03:44;99503.91;;;4.20;100.00
68193;BME280;55012;47.562;18.414;2023-11-22T04:06:09;99549.25;;;4.17;100.00
68193;BME280;55012;47.562;18.414;2023-11-22T04:08:34;99616.50;;;3.97;100.00
68193;BME280;55012;47.562;18.414;2023-11-22T04:11:00;99659.19;;;3.88;100.00
68193;BME280;55012;47.562;18.414;2023-11-22T04:13:27;99683.00;;;3.89;100.00
68193;BME280;55012;47.562;18.414;2023-11-22T04:15:52;99694.75;;;3.88;100.00
68193;BME280;55012;47.562;18.414;2023-11-22T04:18:18;99699.13;;;3.84;100.00
68193;BME280;55012;47.562;18.414;2023-11-22T04:20:43;99707.66;;;3.86;100.00
68193;BME280;55012;47.562;18.414;2023-11-22T04:23:09;99724.44;;;3.92;100.00
68193;BME280;55012;47.562;18.414;2023-11-22T04:25:41;99742.25;;;4.02;100.00
68193;BME280;55012;47.562;18.414;2023-11-22T04:28:07;99759.84;;;4.08;100.00
68193;BME280;55012;47.562;18.414;2023-11-22T04:30:34;99768.06;;;4.11;100.00
68193;BME280;55012;47.562;18.414;2023-11-22T04:32:59;99791.03;;;4.17;100.00
68193;BME280;55012;47.562;18.414;2023-11-22T04:35:25;99822.50;;;4.26;100.00
68193;BME280;55012;47.562;18.414;2023-11-22T04:37:50;99840.91;;;4.32;100.00
68193;BME280;55012;47.562;18.414;2023-11-22T04:40:16;99852.41;;;4.33;100.00
68193;BME280;55012;47.562;18.414;2023-11-22T04:42:43;99854.44;;;4.22;100.00
68193;BME280;55012;47.562;18.414;2023-11-22T04:45:08;99852.91;;;4.16;100.00
68193;BME280;55012;47.562;18.414;2023-11-22T04:47:35;99865.53;;;4.10;100.00
68193;BME280;55012;47.562;18.414;2023-11-22T04:50:00;99864.53;;;4.06;100.00
68193;BME280;55012;47.562;18.414;2023-11-22T04:52:26;99877.63;;;4.08;100.00
68193;BME280;55012;47.562;18.414;2023-11-22T04:54:51;99871.34;;;4.17;100.00
68193;BME280;55012;47.562;18.414;2023-11-22T04:57:16;99872.03;;;4.28;100.00
68193;BME280;55012;47.562;18.414;2023-11-22T04:59:42;99886.38;;;4.37;100.00
68193;BME280;55012;47.562;18.414;2023-11-22T05:02:07;99887.25;;;4.33;100.00
68193;BME280;55012;47.562;18.414;2023-11-22T05:04:33;99885.69;;;4.27;100.00
68193;BME280;55012;47.562;18.414;2023-11-22T05:06:59;99894.31;;;4.23;100.00
68193;BME280;55012;47.562;18.414;2023-11-22T05:09:24;99893.00;;;4.21;100.00
68193;BME280;55012;47.562;18.414;2023-11-22T05:11:50;99903.31;;;4.09;100.00
68193;BME280;55012;47.562;18.414;2023-11-22T05:14:17;99905.31;;;3.98;100.00
68193;BME280;55012;47.562;18.414;2023-11-22T05:16:42;99897.91;;;3.90;100.00
68193;BME280;55012;47.562;18.414;2023-11-22T05:19:08;99907.53;;;3.91;100.00
68193;BME280;55012;47.562;18.414;2023-11-22T05:21:33;99904.69;;;3.82;100.00
68193;BME280;55012;47.562;18.414;2023-11-22T05:23:59;99911.38;;;3.80;100.00
68193;BME280;55012;47.562;18.414;2023-11-22T05:26:25;99914.16;;;3.70;100.00
68193;BME280;55012;47.562;18.414;2023-11-22T05:28:50;99915.63;;;3.57;100.00
68193;BME280;55012;47.562;18.414;2023-11-22T05:31:16;99906.88;;;3.46;100.00
68193;BME280;55012;47.562;18.414;2023-11-22T05:33:41;99922.53;;;3.29;100.00
68193;BME280;55012;47.562;18.414;2023-11-22T05:36:07;99919.44;;;3.17;100.00
68193;BME280;55012;47.562;18.414;2023-11-22T05:38:33;99927.84;;;3.00;100.00
68193;BME280;55012;47.562;18.414;2023-11-22T05:41:00;99938.84;;;2.93;100.00
68193;BME280;55012;47.562;18.414;2023-11-22T05:43:26;99943.13;;;2.89;100.00
68193;BME280;55012;47.562;18.414;2023-11-22T05:45:54;99953.88;;;2.79;100.00
68193;BME280;55012;47.562;18.414;2023-11-22T05:48:20;99980.28;;;2.86;100.00
68193;BME280;55012;47.562;18.414;2023-11-22T05:50:47;99988.03;;;2.87;100.00
68193;BME280;55012;47.562;18.414;2023-11-22T05:53:12;99996.31;;;2.91;100.00
68193;BME280;55012;47.562;18.414;2023-11-22T05:55:47;100022.41;;;3.04;100.00
68193;BME280;55012;47.562;18.414;2023-11-22T05:58:16;100028.84;;;3.03;100.00
68193;BME280;55012;47.562;18.414;2023-11-22T06:00:46;100037.44;;;3.00;100.00
68193;BME280;55012;47.562;18.414;2023-11-22T06:03:12;100049.44;;;3.02;100.00
68193;BME280;55012;47.562;18.414;2023-11-22T06:05:38;100051.59;;;3.00;100.00
68193;BME280;55012;47.562;18.414;2023-11-22T06:08:04;100064.38;;;3.03;100.00
68193;BME280;55012;47.562;18.414;2023-11-22T06:10:29;100064.13;;;3.05;100.00
68193;BME280;55012;47.562;18.414;2023-11-22T06:12:55;100074.22;;;3.18;100.00
68193;BME280;55012;47.562;18.414;2023-11-22T06:15:21;100092.59;;;3.30;100.00
68193;BME280;55012;47.562;18.414;2023-11-22T06:17:47;100096.06;;;3.35;100.00
68193;BME280;55012;47.562;18.414;2023-11-22T06:20:14;100105.97;;;3.35;100.00
68193;BME280;55012;47.562;18.414;2023-11-22T06:22:39;100114.47;;;3.42;100.00
68193;BME280;55012;47.562;18.414;2023-11-22T06:25:11;100127.63;;;3.33;100.00
68193;BME280;55012;47.562;18.414;2023-11-22T06:27:37;100125.31;;;3.12;100.00
68193;BME280;55012;47.562;18.414;2023-11-22T06:30:03;100116.56;;;2.86;100.00
68193;BME280;55012;47.562;18.414;2023-11-22T06:32:28;100131.28;;;2.73;100.00
68193;BME280;55012;47.562;18.414;2023-11-22T06:34:54;100121.69;;;2.72;100.00
68193;BME280;55012;47.562;18.414;2023-11-22T06:37:20;100128.13;;;2.66;100.00
68193;BME280;55012;47.562;18.414;2023-11-22T06:39:46;100132.13;;;2.68;100.00
68193;BME280;55012;47.562;18.414;2023-11-22T06:42:11;100131.84;;;2.65;100.00
68193;BME280;55012;47.562;18.414;2023-11-22T06:44:38;100127.56;;;2.69;100.00
68193;BME280;55012;47.562;18.414;2023-11-22T06:47:05;100125.44;;;2.71;100.00
68193;BME280;55012;47.562;18.414;2023-11-22T06:49:32;100130.50;;;2.77;100.00
68193;BME280;55012;47.562;18.414;2023-11-22T06:51:58;100127.81;;;2.77;100.00
68193;BME280;55012;47.562;18.414;2023-11-22T06:54:23;100130.50;;;2.77;100.00
68193;BME280;55012;47.562;18.414;2023-11-22T06:56:49;100149.72;;;2.85;100.00
68193;BME280;55012;47.562;18.414;2023-11-22T06:59:16;100149.72;;;2.90;100.00
68193;BME280;55012;47.562;18.414;2023-11-22T07:01:42;100156.91;;;2.99;100.00
68193;BME280;55012;47.562;18.414;2023-11-22T07:04:08;100165.97;;;3.08;100.00
68193;BME280;55012;47.562;18.414;2023-11-22T07:06:33;100172.09;;;3.09;100.00
68193;BME280;55012;47.562;18.414;2023-11-22T07:08:59;100175.06;;;3.07;100.00
68193;BME280;55012;47.562;18.414;2023-11-22T07:11:25;100182.53;;;3.16;100.00
68193;BME280;55012;47.562;18.414;2023-11-22T07:13:51;100201.72;;;3.28;100.00
68193;BME280;55012;47.562;18.414;2023-11-22T07:16:18;100202.50;;;3.33;100.00
68193;BME280;55012;47.562;18.414;2023-11-22T07:18:44;100197.69;;;3.35;100.00
68193;BME280;55012;47.562;18.414;2023-11-22T07:21:10;100188.06;;;3.34;100.00
68193;BME280;55012;47.562;18.414;2023-11-22T07:23:37;100201.44;;;3.40;100.00
68193;BME280;55012;47.562;18.414;2023-11-22T07:26:03;100197.91;;;3.44;100.00
68193;BME280;55012;47.562;18.414;2023-11-22T07:28:29;100191.78;;;3.44;100.00
68193;BME280;55012;47.562;18.414;2023-11-22T07:30:56;100204.81;;;3.60;100.00
68193;BME280;55012;47.562;18.414;2023-11-22T07:33:22;100211.75;;;3.66;100.00
68193;BME280;55012;47.562;18.414;2023-11-22T07:35:47;100213.84;;;3.70;100.00
68193;BME280;55012;47.562;18.414;2023-11-22T07:38:13;100212.53;;;3.67;100.00
68193;BME280;55012;47.562;18.414;2023-11-22T07:40:39;100203.44;;;3.63;100.00
68193;BME280;55012;47.562;18.414;2023-11-22T07:43:05;100205.38;;;3.52;100.00
68193;BME280;55012;47.562;18.414;2023-11-22T07:45:33;100193.66;;;3.38;100.00
68193;BME280;55012;47.562;18.414;2023-11-22T07:47:58;100189.66;;;3.41;100.00
68193;BME280;55012;47.562;18.414;2023-11-22T07:50:28;100174.91;;;3.43;100.00
68193;BME280;55012;47.562;18.414;2023-11-22T07:52:54;100171.97;;;3.45;100.00
68193;BME280;55012;47.562;18.414;2023-11-22T07:55:20;100171.97;;;3.45;100.00
68193;BME280;55012;47.562;18.414;2023-11-22T07:57:48;100161.03;;;3.41;100.00
68193;BME280;55012;47.562;18.414;2023-11-22T08:00:14;100157.56;;;3.41;100.00
68193;BME280;55012;47.562;18.414;2023-11-22T08:02:45;100145.00;;;3.36;100.00
68193;BME280;55012;47.562;18.414;2023-11-22T08:05:10;100140.72;;;3.35;100.00
68193;BME280;55012;47.562;18.414;2023-11-22T08:07:38;100131.38;;;3.32;100.00
68193;BME280;55012;47.562;18.414;2023-11-22T08:10:07;100124.44;;;3.26;100.00
68193;BME280;55012;47.562;18.414;2023-11-22T08:12:43;100097.72;;;3.26;100.00
68193;BME280;55012;47.562;18.414;2023-11-22T08:15:10;100096.06;;;3.35;100.00
68193;BME280;55012;47.562;18.414;2023-11-22T08:17:38;100087.75;;;3.37;100.00
68193;BME280;55012;47.562;18.414;2023-11-22T08:20:05;100062.34;;;3.40;100.00
68193;BME280;55012;47.562;18.414;2023-11-22T08:22:32;100047.63;;;3.42;100.00
68193;BME280;55012;47.562;18.414;2023-11-22T08:25:02;100033.09;;;3.53;100.00
68193;BME280;55012;47.562;18.414;2023-11-22T08:27:28;99999.56;;;3.32;100.00
68193;BME280;55012;47.562;18.414;2023-11-22T08:29:54;99975.78;;;3.25;100.00
68193;BME280;55012;47.562;18.414;2023-11-22T08:32:19;99947.38;;;3.34;100.00
68193;BME280;55012;47.562;18.414;2023-11-22T08:34:49;99909.81;;;3.16;100.00
68193;BME280;55012;47.562;18.414;2023-11-22T08:37:15;99886.91;;;3.04;100.00
68193;BME280;55012;47.562;18.414;2023-11-22T08:39:41;99880.75;;;3.04;100.00
68193;BME280;55012;47.562;18.414;2023-11-22T08:42:06;99868.16;;;3.09;100.00
68193;BME280;55012;47.562;18.414;2023-11-22T08:44:38;99850.28;;;3.05;100.00
68193;BME280;55012;47.562;18.414;2023-11-22T08:47:04;99854.41;;;3.21;100.00
68193;BME280;55012;47.562;18.414;2023-11-22T08:49:33;99838.72;;;3.15;100.00
68193;BME280;55012;47.562;18.414;2023-11-22T08:51:59;99852.50;;;3.27;100.00
68193;BME280;55012;47.562;18.414;2023-11-22T08:54:25;99861.19;;;3.43;100.00
68193;BME280;55012;47.562;18.414;2023-11-22T08:56:55;99860.34;;;3.47;100.00
68193;BME280;55012;47.562;18.414;2023-11-22T08:59:23;99832.84;;;3.42;100.00
68193;BME280;55012;47.562;18.414;2023-11-22T09:01:49;99810.22;;;3.29;100.00
68193;BME280;55012;47.562;18.414;2023-11-22T09:04:14;99781.34;;;3.31;100.00
68193;BME280;55012;47.562;18.414;2023-11-22T09:06:41;99781.47;;;3.45;100.00
68193;BME280;55012;47.562;18.414;2023-11-22T09:09:07;99774.03;;;3.65;100.00
68193;BME280;55012;47.562;18.414;2023-11-22T09:11:33;99770.81;;;3.63;100.00
68193;BME280;55012;47.562;18.414;2023-11-22T09:14:00;99731.56;;;3.59;100.00
68193;BME280;55012;47.562;18.414;2023-11-22T09:16:35;99711.59;;;3.51;100.00
68193;BME280;55012;47.562;18.414;2023-11-22T09:19:00;99684.00;;;3.56;100.00
68193;BME280;55012;47.562;18.414;2023-11-22T09:21:26;99677.03;;;3.55;100.00
68193;BME280;55012;47.562;18.414;2023-11-22T09:23:51;99663.81;;;3.63;100.00
68193;BME280;55012;47.562;18.414;2023-11-22T09:26:17;99641.25;;;3.70;100.00
68193;BME280;55012;47.562;18.414;2023-11-22T09:28:42;99634.94;;;3.79;100.00
68193;BME280;55012;47.562;18.414;2023-11-22T09:31:08;99631.25;;;3.94;100.00
68193;BME280;55012;47.562;18.414;2023-11-22T09:33:34;99616.13;;;4.03;100.00
68193;BME280;55012;47.562;18.414;2023-11-22T09:35:59;99606.75;;;4.06;100.00
68193;BME280;55012;47.562;18.414;2023-11-22T09:38:25;99594.41;;;4.05;100.00
68193;BME280;55012;47.562;18.414;2023-11-22T09:40:50;99596.94;;;4.15;100.00
68193;BME280;55012;47.562;18.414;2023-11-22T09:43:19;99576.31;;;4.15;100.00
68193;BME280;55012;47.562;18.414;2023-11-22T09:45:47;99570.72;;;4.31;100.00
68193;BME280;55012;47.562;18.414;2023-11-22T09:48:17;99574.97;;;4.32;100.00
68193;BME280;55012;47.562;18.414;2023-11-22T09:50:50;99559.16;;;4.30;100.00
68193;BME280;55012;47.562;18.414;2023-11-22T09:53:56;99554.97;;;4.57;100.00
68193;BME280;55012;47.562;18.414;2023-11-22T09:56:23;99559.72;;;4.73;100.00
68193;BME280;55012;47.562;18.414;2023-11-22T09:58:52;99544.94;;;4.90;100.00
68193;BME280;55012;47.562;18.414;2023-11-22T10:01:20;99545.69;;;5.04;100.00
68193;BME280;55012;47.562;18.414;2023-11-22T10:03:47;99536.28;;;5.06;100.00
68193;BME280;55012;47.562;18.414;2023-11-22T10:06:13;99543.72;;;5.10;100.00
68193;BME280;55012;47.562;18.414;2023-11-22T10:08:40;99540.22;;;5.09;100.00
68193;BME280;55012;47.562;18.414;2023-11-22T10:11:06;99537.31;;;5.19;100.00
68193;BME280;55012;47.562;18.414;2023-11-22T10:13:32;99549.44;;;5.30;100.00
68193;BME280;55012;47.562;18.414;2023-11-22T10:16:12;99559.63;;;5.42;100.00
68193;BME280;55012;47.562;18.414;2023-11-22T10:18:44;99561.69;;;5.45;100.00
68193;BME280;55012;47.562;18.414;2023-11-22T10:21:42;99565.44;;;5.58;100.00
68193;BME280;55012;47.562;18.414;2023-11-22T10:24:07;99559.97;;;5.63;100.00
68193;BME280;55012;47.562;18.414;2023-11-22T10:26:35;99545.91;;;5.80;100.00
68193;BME280;55012;47.562;18.414;2023-11-22T10:29:01;99549.94;;;5.91;100.00
68193;BME280;55012;47.562;18.414;2023-11-22T10:31:27;99551.25;;;6.02;100.00
68193;BME280;55012;47.562;18.414;2023-11-22T10:33:53;99572.69;;;6.16;100.00
68193;BME280;55012;47.562;18.414;2023-11-22T10:36:21;99558.31;;;6.20;100.00
68193;BME280;55012;47.562;18.414;2023-11-22T10:38:48;99557.72;;;6.24;100.00
68193;BME280;55012;47.562;18.414;2023-11-22T10:41:13;99573.59;;;6.11;100.00
68193;BME280;55012;47.562;18.414;2023-11-22T10:43:39;99575.75;;;6.01;100.00
68193;BME280;55012;47.562;18.414;2023-11-22T10:46:07;99595.75;;;5.95;100.00
68193;BME280;55012;47.562;18.414;2023-11-22T10:48:35;99602.53;;;5.92;100.00
68193;BME280;55012;47.562;18.414;2023-11-22T10:51:03;99611.97;;;5.89;100.00
68193;BME280;55012;47.562;18.414;2023-11-22T10:53:34;99626.00;;;5.86;100.00
68193;BME280;55012;47.562;18.414;2023-11-22T10:56:14;99629.97;;;5.89;100.00
68193;BME280;55012;47.562;18.414;2023-11-22T10:58:47;99620.34;;;5.88;100.00
68193;BME280;55012;47.562;18.414;2023-11-22T11:01:15;99624.50;;;5.94;100.00
68193;BME280;55012;47.562;18.414;2023-11-22T11:03:45;99628.78;;;5.95;100.00
68193;BME280;55012;47.562;18.414;2023-11-22T11:06:15;99631.03;;;6.02;100.00
68193;BME280;55012;47.562;18.414;2023-11-22T11:08:45;99618.19;;;6.12;100.00
68193;BME280;55012;47.562;18.414;2023-11-22T11:11:11;99635.38;;;6.11;100.00
68193;BME280;55012;47.562;18.414;2023-11-22T11:13:40;99629.25;;;6.19;100.00
68193;BME280;55012;47.562;18.414;2023-11-22T11:16:08;99636.72;;;6.23;100.00
68193;BME280;55012;47.562;18.414;2023-11-22T11:18:35;99637.91;;;6.30;100.00
68193;BME280;55012;47.562;18.414;2023-11-22T11:21:08;99658.16;;;6.14;100.00
68193;BME280;55012;47.562;18.414;2023-11-22T11:23:34;99669.81;;;6.09;100.00
68193;BME280;55012;47.562;18.414;2023-11-22T11:26:18;99669.31;;;6.07;100.00
68193;BME280;55012;47.562;18.414;2023-11-22T11:28:48;99675.59;;;6.03;100.00
68193;BME280;55012;47.562;18.414;2023-11-22T11:31:14;99677.69;;;6.06;100.00
68193;BME280;55012;47.562;18.414;2023-11-22T11:38:51;99709.38;;;6.17;100.00
68193;BME280;55012;47.562;18.414;2023-11-22T11:41:17;99719.16;;;6.13;100.00
68193;BME280;55012;47.562;18.414;2023-11-22T11:43:44;99719.00;;;6.18;100.00
68193;BME280;55012;47.562;18.414;2023-11-22T11:46:14;99734.47;;;6.13;100.00
68193;BME280;55012;47.562;18.414;2023-11-22T11:48:51;99736.56;;;6.02;100.00
68193;BME280;55012;47.562;18.414;2023-11-22T11:51:23;99725.41;;;6.09;100.00
68193;BME280;55012;47.562;18.414;2023-11-22T11:53:48;99723.66;;;6.04;100.00
68193;BME280;55012;47.562;18.414;2023-11-22T11:56:15;99710.22;;;6.04;100.00
68193;BME280;55012;47.562;18.414;2023-11-22T11:58:45;99714.97;;;6.07;100.00
68193;BME280;55012;47.562;18.414;2023-11-22T12:01:20;99725.31;;;6.14;100.00
68193;BME280;55012;47.562;18.414;2023-11-22T12:03:47;99740.44;;;6.10;100.00
68193;BME280;55012;47.562;18.414;2023-11-22T12:06:16;99745.81;;;6.10;100.00
68193;BME280;55012;47.562;18.414;2023-11-22T12:08:43;99729.75;;;6.18;100.00
68193;BME280;55012;47.562;18.414;2023-11-22T12:11:09;99742.16;;;6.28;100.00
68193;BME280;55012;47.562;18.414;2023-11-22T12:13:38;99741.25;;;6.33;100.00
68193;BME280;55012;47.562;18.414;2023-11-22T12:16:07;99722.03;;;6.39;100.00
68193;BME280;55012;47.562;18.414;2023-11-22T12:18:46;99747.75;;;6.32;100.00
68193;BME280;55012;47.562;18.414;2023-11-22T12:21:13;99753.59;;;6.34;100.00
68193;BME280;55012;47.562;18.414;2023-11-22T12:23:43;99746.03;;;6.36;100.00
68193;BME280;55012;47.562;18.414;2023-11-22T12:26:15;99754.28;;;6.39;100.00
68193;BME280;55012;47.562;18.414;2023-11-22T12:28:44;99745.00;;;6.45;100.00
68193;BME280;55012;47.562;18.414;2023-11-22T12:31:12;99754.22;;;6.53;100.00
68193;BME280;55012;47.562;18.414;2023-11-22T12:33:38;99752.28;;;6.67;100.00
68193;BME280;55012;47.562;18.414;2023-11-22T12:36:05;99784.06;;;6.65;100.00
68193;BME280;55012;47.562;18.414;2023-11-22T12:38:31;99773.78;;;6.67;100.00
68193;BME280;55012;47.562;18.414;2023-11-22T12:40:58;99782.47;;;6.64;100.00
68193;BME280;55012;47.562;18.414;2023-11-22T12:43:24;99811.66;;;6.57;100.00
68193;BME280;55012;47.562;18.414;2023-11-22T12:46:05;99786.78;;;6.52;100.00
68193;BME280;55012;47.562;18.414;2023-11-22T12:48:38;99819.44;;;6.45;100.00
68193;BME280;55012;47.562;18.414;2023-11-22T12:51:17;99790.19;;;6.43;100.00